sensor_id;sensor_type;location;lat;lon;timestamp;P1;durP1;ratioP1;P2;durP2;ratioP2
21272;SDS011;36726;52.328;10.552;2022-12-24T00:01:01;5.90;;;3.00;;
21272;SDS011;36726;52.328;10.552;2022-12-24T00:03:28;4.28;;;3.22;;
21272;SDS011;36726;52.328;10.552;2022-12-24T00:05:56;6.80;;;4.50;;
21272;SDS011;36726;52.328;10.552;2022-12-24T00:08:22;5.57;;;3.60;;
21272;SDS011;36726;52.328;10.552;2022-12-24T00:10:52;5.68;;;3.63;;
21272;SDS011;36726;52.328;10.552;2022-12-24T00:13:20;5.07;;;3.55;;
21272;SDS011;36726;52.328;10.552;2022-12-24T00:15:47;4.22;;;2.72;;
21272;SDS011;36726;52.328;10.552;2022-12-24T00:18:14;6.85;;;3.88;;
21272;SDS011;36726;52.328;10.552;2022-12-24T00:20:46;5.90;;;2.60;;
21272;SDS011;36726;52.328;10.552;2022-12-24T00:23:13;8.77;;;5.68;;
21272;SDS011;36726;52.328;10.552;2022-12-24T00:25:41;5.80;;;3.75;;
21272;SDS011;36726;52.328;10.552;2022-12-24T00:28:08;5.10;;;3.17;;
21272;SDS011;36726;52.328;10.552;2022-12-24T00:30:37;6.38;;;3.15;;
21272;SDS011;36726;52.328;10.552;2022-12-24T00:33:04;4.95;;;3.20;;
21272;SDS011;36726;52.328;10.552;2022-12-24T00:35:34;3.75;;;2.67;;
21272;SDS011;36726;52.328;10.552;2022-12-24T00:38:03;3.58;;;2.67;;
21272;SDS011;36726;52.328;10.552;2022-12-24T00:40:30;4.60;;;3.22;;
21272;SDS011;36726;52.328;10.552;2022-12-24T00:42:57;4.15;;;2.80;;
21272;SDS011;36726;52.328;10.552;2022-12-24T00:45:24;6.65;;;3.40;;
21272;SDS011;36726;52.328;10.552;2022-12-24T00:47:52;5.75;;;2.97;;
21272;SDS011;36726;52.328;10.552;2022-12-24T00:50:19;5.72;;;3.33;;
21272;SDS011;36726;52.328;10.552;2022-12-24T00:52:46;5.80;;;3.30;;
21272;SDS011;36726;52.328;10.552;2022-12-24T00:55:13;5.57;;;4.00;;
21272;SDS011;36726;52.328;10.552;2022-12-24T00:57:40;6.38;;;4.63;;
21272;SDS011;36726;52.328;10.552;2022-12-24T01:00:07;4.50;;;3.60;;
21272;SDS011;36726;52.328;10.552;2022-12-24T01:02:34;3.63;;;2.35;;
21272;SDS011;36726;52.328;10.552;2022-12-24T01:05:01;5.35;;;3.03;;
21272;SDS011;36726;52.328;10.552;2022-12-24T01:07:37;3.42;;;2.70;;
21272;SDS011;36726;52.328;10.552;2022-12-24T01:10:06;3.67;;;2.38;;
21272;SDS011;36726;52.328;10.552;2022-12-24T01:12:34;4.05;;;2.40;;
21272;SDS011;36726;52.328;10.552;2022-12-24T01:15:02;3.25;;;2.20;;
21272;SDS011;36726;52.328;10.552;2022-12-24T01:17:30;2.38;;;1.80;;
21272;SDS011;36726;52.328;10.552;2022-12-24T01:19:58;1.95;;;1.60;;
21272;SDS011;36726;52.328;10.552;2022-12-24T01:22:25;3.50;;;1.73;;
21272;SDS011;36726;52.328;10.552;2022-12-24T01:24:51;1.95;;;1.30;;
21272;SDS011;36726;52.328;10.552;2022-12-24T01:27:19;1.48;;;1.30;;
21272;SDS011;36726;52.328;10.552;2022-12-24T01:29:46;2.92;;;1.23;;
21272;SDS011;36726;52.328;10.552;2022-12-24T01:32:13;2.45;;;1.30;;
21272;SDS011;36726;52.328;10.552;2022-12-24T01:34:40;2.60;;;1.50;;
21272;SDS011;36726;52.328;10.552;2022-12-24T01:37:09;1.95;;;1.40;;
21272;SDS011;36726;52.328;10.552;2022-12-24T01:39:36;2.03;;;1.30;;
21272;SDS011;36726;52.328;10.552;2022-12-24T01:42:09;3.65;;;1.30;;
21272;SDS011;36726;52.328;10.552;2022-12-24T01:45:21;1.73;;;1.15;;
21272;SDS011;36726;52.328;10.552;2022-12-24T01:48:03;3.40;;;1.48;;
21272;SDS011;36726;52.328;10.552;2022-12-24T01:50:30;2.42;;;1.45;;
21272;SDS011;36726;52.328;10.552;2022-12-24T01:52:56;3.00;;;1.77;;
21272;SDS011;36726;52.328;10.552;2022-12-24T01:55:23;1.67;;;1.52;;
21272;SDS011;36726;52.328;10.552;2022-12-24T01:57:52;2.00;;;1.80;;
21272;SDS011;36726;52.328;10.552;2022-12-24T02:00:23;1.88;;;1.60;;
21272;SDS011;36726;52.328;10.552;2022-12-24T02:02:50;1.75;;;1.58;;
21272;SDS011;36726;52.328;10.552;2022-12-24T02:05:23;2.50;;;1.88;;
21272;SDS011;36726;52.328;10.552;2022-12-24T02:07:57;1.60;;;1.40;;
21272;SDS011;36726;52.328;10.552;2022-12-24T02:10:25;2.53;;;1.85;;
21272;SDS011;36726;52.328;10.552;2022-12-24T02:12:52;2.00;;;1.70;;
21272;SDS011;36726;52.328;10.552;2022-12-24T02:15:19;2.03;;;1.70;;
21272;SDS011;36726;52.328;10.552;2022-12-24T02:20:28;3.30;;;1.85;;
21272;SDS011;36726;52.328;10.552;2022-12-24T02:31:00;2.58;;;2.00;;
21272;SDS011;36726;52.328;10.552;2022-12-24T02:33:37;4.88;;;1.90;;
21272;SDS011;36726;52.328;10.552;2022-12-24T02:36:14;2.78;;;2.08;;
21272;SDS011;36726;52.328;10.552;2022-12-24T02:41:24;4.82;;;2.38;;
21272;SDS011;36726;52.328;10.552;2022-12-24T02:44:15;3.20;;;2.45;;
21272;SDS011;36726;52.328;10.552;2022-12-24T02:46:44;3.15;;;1.92;;
21272;SDS011;36726;52.328;10.552;2022-12-24T02:49:12;2.63;;;1.92;;
21272;SDS011;36726;52.328;10.552;2022-12-24T02:51:39;3.63;;;2.20;;
21272;SDS011;36726;52.328;10.552;2022-12-24T02:54:06;2.40;;;2.00;;
21272;SDS011;36726;52.328;10.552;2022-12-24T02:59:25;2.78;;;2.05;;
21272;SDS011;36726;52.328;10.552;2022-12-24T03:01:56;2.42;;;2.00;;
21272;SDS011;36726;52.328;10.552;2022-12-24T03:07:43;2.67;;;2.25;;
21272;SDS011;36726;52.328;10.552;2022-12-24T03:13:08;2.47;;;2.00;;
21272;SDS011;36726;52.328;10.552;2022-12-24T03:15:38;4.57;;;2.65;;
21272;SDS011;36726;52.328;10.552;2022-12-24T03:18:06;3.28;;;2.33;;
21272;SDS011;36726;52.328;10.552;2022-12-24T03:20:43;2.80;;;2.45;;
21272;SDS011;36726;52.328;10.552;2022-12-24T03:23:12;2.97;;;2.22;;
21272;SDS011;36726;52.328;10.552;2022-12-24T03:25:41;4.20;;;2.83;;
21272;SDS011;36726;52.328;10.552;2022-12-24T03:28:09;2.80;;;2.15;;
21272;SDS011;36726;52.328;10.552;2022-12-24T03:30:41;4.20;;;2.80;;
21272;SDS011;36726;52.328;10.552;2022-12-24T03:33:11;4.03;;;2.47;;
21272;SDS011;36726;52.328;10.552;2022-12-24T03:35:38;4.18;;;2.63;;
21272;SDS011;36726;52.328;10.552;2022-12-24T03:38:05;5.05;;;2.83;;
21272;SDS011;36726;52.328;10.552;2022-12-24T03:40:32;2.78;;;2.15;;
21272;SDS011;36726;52.328;10.552;2022-12-24T03:42:59;3.42;;;2.40;;
21272;SDS011;36726;52.328;10.552;2022-12-24T03:45:26;4.22;;;2.55;;
21272;SDS011;36726;52.328;10.552;2022-12-24T03:47:52;4.95;;;2.75;;
21272;SDS011;36726;52.328;10.552;2022-12-24T03:50:19;5.65;;;2.80;;
21272;SDS011;36726;52.328;10.552;2022-12-24T03:52:46;4.07;;;2.63;;
21272;SDS011;36726;52.328;10.552;2022-12-24T03:55:12;5.18;;;3.17;;
21272;SDS011;36726;52.328;10.552;2022-12-24T03:57:39;5.03;;;3.78;;
21272;SDS011;36726;52.328;10.552;2022-12-24T04:00:05;5.90;;;3.50;;
21272;SDS011;36726;52.328;10.552;2022-12-24T04:02:39;5.43;;;3.17;;
21272;SDS011;36726;52.328;10.552;2022-12-24T04:05:06;4.18;;;2.80;;
21272;SDS011;36726;52.328;10.552;2022-12-24T04:07:33;5.03;;;3.55;;
21272;SDS011;36726;52.328;10.552;2022-12-24T04:10:00;5.35;;;3.35;;
21272;SDS011;36726;52.328;10.552;2022-12-24T04:12:27;5.22;;;3.38;;
21272;SDS011;36726;52.328;10.552;2022-12-24T04:14:54;7.85;;;3.17;;
21272;SDS011;36726;52.328;10.552;2022-12-24T04:17:20;8.07;;;3.22;;
21272;SDS011;36726;52.328;10.552;2022-12-24T04:19:47;4.05;;;2.90;;
21272;SDS011;36726;52.328;10.552;2022-12-24T04:22:13;9.50;;;3.17;;
21272;SDS011;36726;52.328;10.552;2022-12-24T04:24:40;8.65;;;2.97;;
21272;SDS011;36726;52.328;10.552;2022-12-24T04:27:06;4.05;;;2.50;;
21272;SDS011;36726;52.328;10.552;2022-12-24T04:29:33;4.22;;;2.25;;
21272;SDS011;36726;52.328;10.552;2022-12-24T04:31:59;4.90;;;1.98;;
21272;SDS011;36726;52.328;10.552;2022-12-24T04:34:26;10.38;;;1.98;;
21272;SDS011;36726;52.328;10.552;2022-12-24T04:36:53;4.82;;;1.75;;
21272;SDS011;36726;52.328;10.552;2022-12-24T04:39:19;5.65;;;1.60;;
21272;SDS011;36726;52.328;10.552;2022-12-24T04:41:46;8.13;;;2.00;;
21272;SDS011;36726;52.328;10.552;2022-12-24T04:44:13;8.73;;;1.95;;
21272;SDS011;36726;52.328;10.552;2022-12-24T04:46:39;9.05;;;2.58;;
21272;SDS011;36726;52.328;10.552;2022-12-24T04:49:07;9.63;;;1.98;;
21272;SDS011;36726;52.328;10.552;2022-12-24T04:51:34;10.15;;;2.20;;
21272;SDS011;36726;52.328;10.552;2022-12-24T04:54:00;7.13;;;2.13;;
21272;SDS011;36726;52.328;10.552;2022-12-24T04:56:31;5.97;;;2.28;;
21272;SDS011;36726;52.328;10.552;2022-12-24T04:58:58;7.57;;;2.55;;
21272;SDS011;36726;52.328;10.552;2022-12-24T05:01:27;6.18;;;2.35;;
21272;SDS011;36726;52.328;10.552;2022-12-24T05:03:56;7.95;;;2.40;;
21272;SDS011;36726;52.328;10.552;2022-12-24T05:06:24;5.53;;;1.83;;
21272;SDS011;36726;52.328;10.552;2022-12-24T05:08:53;11.98;;;2.80;;
21272;SDS011;36726;52.328;10.552;2022-12-24T05:11:21;8.55;;;2.00;;
21272;SDS011;36726;52.328;10.552;2022-12-24T05:13:47;6.25;;;2.10;;
21272;SDS011;36726;52.328;10.552;2022-12-24T05:16:15;8.82;;;2.05;;
21272;SDS011;36726;52.328;10.552;2022-12-24T05:18:42;4.55;;;1.77;;
21272;SDS011;36726;52.328;10.552;2022-12-24T05:21:10;9.30;;;2.15;;
21272;SDS011;36726;52.328;10.552;2022-12-24T05:23:39;11.98;;;1.90;;
21272;SDS011;36726;52.328;10.552;2022-12-24T05:26:35;7.43;;;2.28;;
21272;SDS011;36726;52.328;10.552;2022-12-24T05:29:12;8.07;;;1.95;;
21272;SDS011;36726;52.328;10.552;2022-12-24T05:31:39;9.60;;;2.20;;
21272;SDS011;36726;52.328;10.552;2022-12-24T05:34:07;7.65;;;2.20;;
21272;SDS011;36726;52.328;10.552;2022-12-24T05:36:34;7.90;;;1.80;;
21272;SDS011;36726;52.328;10.552;2022-12-24T05:39:01;3.97;;;1.80;;
21272;SDS011;36726;52.328;10.552;2022-12-24T05:41:28;6.25;;;1.90;;
21272;SDS011;36726;52.328;10.552;2022-12-24T05:43:54;8.38;;;2.15;;
21272;SDS011;36726;52.328;10.552;2022-12-24T05:46:21;12.45;;;1.88;;
21272;SDS011;36726;52.328;10.552;2022-12-24T05:48:50;10.10;;;2.10;;
21272;SDS011;36726;52.328;10.552;2022-12-24T05:51:19;5.20;;;1.83;;
21272;SDS011;36726;52.328;10.552;2022-12-24T05:53:47;7.15;;;1.65;;
21272;SDS011;36726;52.328;10.552;2022-12-24T05:56:20;5.85;;;1.67;;
21272;SDS011;36726;52.328;10.552;2022-12-24T05:58:48;4.00;;;1.67;;
21272;SDS011;36726;52.328;10.552;2022-12-24T06:01:16;5.18;;;1.77;;
21272;SDS011;36726;52.328;10.552;2022-12-24T06:03:43;5.85;;;1.67;;
21272;SDS011;36726;52.328;10.552;2022-12-24T06:06:11;8.18;;;1.85;;
21272;SDS011;36726;52.328;10.552;2022-12-24T06:08:46;9.93;;;1.95;;
21272;SDS011;36726;52.328;10.552;2022-12-24T06:11:15;8.00;;;2.00;;
21272;SDS011;36726;52.328;10.552;2022-12-24T06:13:44;7.72;;;1.77;;
21272;SDS011;36726;52.328;10.552;2022-12-24T06:16:12;5.55;;;1.65;;
21272;SDS011;36726;52.328;10.552;2022-12-24T06:18:41;7.53;;;1.65;;
21272;SDS011;36726;52.328;10.552;2022-12-24T06:21:08;6.25;;;1.92;;
21272;SDS011;36726;52.328;10.552;2022-12-24T06:23:37;8.75;;;2.10;;
21272;SDS011;36726;52.328;10.552;2022-12-24T06:26:05;5.72;;;1.90;;
21272;SDS011;36726;52.328;10.552;2022-12-24T06:28:35;8.93;;;2.03;;
21272;SDS011;36726;52.328;10.552;2022-12-24T06:31:03;5.53;;;1.90;;
21272;SDS011;36726;52.328;10.552;2022-12-24T06:33:32;5.88;;;2.22;;
21272;SDS011;36726;52.328;10.552;2022-12-24T06:35:59;9.05;;;2.30;;
21272;SDS011;36726;52.328;10.552;2022-12-24T06:38:28;6.72;;;2.30;;
21272;SDS011;36726;52.328;10.552;2022-12-24T06:40:56;5.95;;;2.50;;
21272;SDS011;36726;52.328;10.552;2022-12-24T06:43:22;10.70;;;2.42;;
21272;SDS011;36726;52.328;10.552;2022-12-24T06:45:49;10.75;;;2.97;;
21272;SDS011;36726;52.328;10.552;2022-12-24T06:48:16;12.57;;;3.10;;
21272;SDS011;36726;52.328;10.552;2022-12-24T06:50:43;9.60;;;2.85;;
21272;SDS011;36726;52.328;10.552;2022-12-24T06:53:09;11.57;;;3.13;;
21272;SDS011;36726;52.328;10.552;2022-12-24T06:55:36;10.35;;;3.03;;
21272;SDS011;36726;52.328;10.552;2022-12-24T06:58:03;14.27;;;3.28;;
21272;SDS011;36726;52.328;10.552;2022-12-24T07:00:32;8.40;;;3.00;;
21272;SDS011;36726;52.328;10.552;2022-12-24T07:02:59;11.38;;;3.72;;
21272;SDS011;36726;52.328;10.552;2022-12-24T07:05:27;5.95;;;3.00;;
21272;SDS011;36726;52.328;10.552;2022-12-24T07:07:55;7.85;;;3.45;;
21272;SDS011;36726;52.328;10.552;2022-12-24T07:10:21;16.17;;;4.18;;
21272;SDS011;36726;52.328;10.552;2022-12-24T07:12:48;12.63;;;3.22;;
21272;SDS011;36726;52.328;10.552;2022-12-24T07:15:15;13.23;;;3.78;;
21272;SDS011;36726;52.328;10.552;2022-12-24T07:17:42;17.77;;;4.75;;
21272;SDS011;36726;52.328;10.552;2022-12-24T07:20:10;21.30;;;5.25;;
21272;SDS011;36726;52.328;10.552;2022-12-24T07:22:43;20.20;;;5.00;;
21272;SDS011;36726;52.328;10.552;2022-12-24T07:25:09;10.65;;;4.07;;
21272;SDS011;36726;52.328;10.552;2022-12-24T07:27:37;12.48;;;3.58;;
21272;SDS011;36726;52.328;10.552;2022-12-24T07:30:04;12.30;;;4.13;;
21272;SDS011;36726;52.328;10.552;2022-12-24T07:32:32;11.10;;;3.72;;
21272;SDS011;36726;52.328;10.552;2022-12-24T07:34:59;14.50;;;4.68;;
21272;SDS011;36726;52.328;10.552;2022-12-24T07:37:25;14.15;;;4.45;;
21272;SDS011;36726;52.328;10.552;2022-12-24T07:39:52;12.82;;;4.03;;
21272;SDS011;36726;52.328;10.552;2022-12-24T07:42:19;7.43;;;3.83;;
21272;SDS011;36726;52.328;10.552;2022-12-24T07:44:45;12.82;;;4.75;;
21272;SDS011;36726;52.328;10.552;2022-12-24T07:47:12;15.90;;;5.00;;
21272;SDS011;36726;52.328;10.552;2022-12-24T07:49:39;17.90;;;4.43;;
21272;SDS011;36726;52.328;10.552;2022-12-24T07:52:05;14.10;;;4.45;;
21272;SDS011;36726;52.328;10.552;2022-12-24T07:54:32;10.60;;;4.20;;
21272;SDS011;36726;52.328;10.552;2022-12-24T07:56:58;13.73;;;4.10;;
21272;SDS011;36726;52.328;10.552;2022-12-24T07:59:25;13.50;;;3.95;;
21272;SDS011;36726;52.328;10.552;2022-12-24T08:01:52;9.48;;;3.75;;
21272;SDS011;36726;52.328;10.552;2022-12-24T08:04:19;9.25;;;3.35;;
21272;SDS011;36726;52.328;10.552;2022-12-24T08:06:46;15.73;;;3.78;;
21272;SDS011;36726;52.328;10.552;2022-12-24T08:09:13;13.75;;;3.97;;
21272;SDS011;36726;52.328;10.552;2022-12-24T08:11:40;8.48;;;3.70;;
21272;SDS011;36726;52.328;10.552;2022-12-24T08:14:16;12.52;;;3.58;;
21272;SDS011;36726;52.328;10.552;2022-12-24T08:16:43;13.73;;;4.22;;
21272;SDS011;36726;52.328;10.552;2022-12-24T08:19:09;13.07;;;3.50;;
21272;SDS011;36726;52.328;10.552;2022-12-24T08:21:36;11.40;;;3.50;;
21272;SDS011;36726;52.328;10.552;2022-12-24T08:24:03;14.77;;;3.63;;
21272;SDS011;36726;52.328;10.552;2022-12-24T08:26:30;10.63;;;4.85;;
21272;SDS011;36726;52.328;10.552;2022-12-24T08:28:56;9.10;;;3.67;;
21272;SDS011;36726;52.328;10.552;2022-12-24T08:31:23;15.55;;;4.05;;
21272;SDS011;36726;52.328;10.552;2022-12-24T08:33:50;13.07;;;3.85;;
21272;SDS011;36726;52.328;10.552;2022-12-24T08:36:17;10.18;;;3.47;;
21272;SDS011;36726;52.328;10.552;2022-12-24T08:38:43;15.07;;;3.60;;
21272;SDS011;36726;52.328;10.552;2022-12-24T08:41:10;11.10;;;3.50;;
21272;SDS011;36726;52.328;10.552;2022-12-24T08:43:36;9.23;;;3.33;;
21272;SDS011;36726;52.328;10.552;2022-12-24T08:46:03;11.73;;;3.78;;
21272;SDS011;36726;52.328;10.552;2022-12-24T08:48:31;13.40;;;4.03;;
21272;SDS011;36726;52.328;10.552;2022-12-24T08:50:59;12.80;;;3.72;;
21272;SDS011;36726;52.328;10.552;2022-12-24T08:53:25;17.38;;;3.95;;
21272;SDS011;36726;52.328;10.552;2022-12-24T08:55:52;13.27;;;3.58;;
21272;SDS011;36726;52.328;10.552;2022-12-24T08:58:26;11.35;;;3.70;;
21272;SDS011;36726;52.328;10.552;2022-12-24T09:00:53;9.48;;;3.65;;
21272;SDS011;36726;52.328;10.552;2022-12-24T09:03:19;16.45;;;3.40;;
21272;SDS011;36726;52.328;10.552;2022-12-24T09:05:52;13.43;;;3.92;;
21272;SDS011;36726;52.328;10.552;2022-12-24T09:08:19;14.75;;;4.07;;
21272;SDS011;36726;52.328;10.552;2022-12-24T09:10:46;12.85;;;3.45;;
21272;SDS011;36726;52.328;10.552;2022-12-24T09:13:13;15.35;;;4.05;;
21272;SDS011;36726;52.328;10.552;2022-12-24T09:15:39;10.82;;;3.60;;
21272;SDS011;36726;52.328;10.552;2022-12-24T09:18:06;16.70;;;4.25;;
21272;SDS011;36726;52.328;10.552;2022-12-24T09:20:33;13.07;;;3.80;;
21272;SDS011;36726;52.328;10.552;2022-12-24T09:22:59;14.55;;;3.90;;
21272;SDS011;36726;52.328;10.552;2022-12-24T09:25:26;11.25;;;3.50;;
21272;SDS011;36726;52.328;10.552;2022-12-24T09:27:53;9.88;;;3.58;;
21272;SDS011;36726;52.328;10.552;2022-12-24T09:30:19;9.95;;;3.50;;
21272;SDS011;36726;52.328;10.552;2022-12-24T09:32:46;14.57;;;3.97;;
21272;SDS011;36726;52.328;10.552;2022-12-24T09:35:12;14.05;;;3.60;;
21272;SDS011;36726;52.328;10.552;2022-12-24T09:37:39;14.20;;;3.90;;
21272;SDS011;36726;52.328;10.552;2022-12-24T09:40:12;18.42;;;4.20;;
21272;SDS011;36726;52.328;10.552;2022-12-24T09:42:51;15.50;;;4.18;;
21272;SDS011;36726;52.328;10.552;2022-12-24T09:45:22;11.65;;;3.78;;
21272;SDS011;36726;52.328;10.552;2022-12-24T09:48:04;14.95;;;3.80;;
21272;SDS011;36726;52.328;10.552;2022-12-24T09:51:00;12.70;;;3.92;;
21272;SDS011;36726;52.328;10.552;2022-12-24T09:56:12;15.95;;;4.47;;
21272;SDS011;36726;52.328;10.552;2022-12-24T09:58:44;17.70;;;4.43;;
21272;SDS011;36726;52.328;10.552;2022-12-24T10:01:14;12.77;;;3.78;;
21272;SDS011;36726;52.328;10.552;2022-12-24T10:03:42;11.55;;;4.28;;
21272;SDS011;36726;52.328;10.552;2022-12-24T10:06:13;12.35;;;4.38;;
21272;SDS011;36726;52.328;10.552;2022-12-24T10:09:39;11.35;;;4.18;;
21272;SDS011;36726;52.328;10.552;2022-12-24T10:12:50;12.95;;;4.53;;
21272;SDS011;36726;52.328;10.552;2022-12-24T10:15:09;12.10;;;4.47;;
21272;SDS011;36726;52.328;10.552;2022-12-24T10:17:51;15.05;;;4.43;;
21272;SDS011;36726;52.328;10.552;2022-12-24T10:26:25;20.13;;;5.68;;
21272;SDS011;36726;52.328;10.552;2022-12-24T10:28:57;10.98;;;4.57;;
21272;SDS011;36726;52.328;10.552;2022-12-24T10:31:34;14.88;;;5.07;;
21272;SDS011;36726;52.328;10.552;2022-12-24T10:34:06;15.80;;;5.03;;
21272;SDS011;36726;52.328;10.552;2022-12-24T10:36:40;13.90;;;5.05;;
21272;SDS011;36726;52.328;10.552;2022-12-24T10:39:09;14.70;;;4.72;;
21272;SDS011;36726;52.328;10.552;2022-12-24T10:41:50;15.35;;;5.07;;
21272;SDS011;36726;52.328;10.552;2022-12-24T10:44:21;14.43;;;4.97;;
21272;SDS011;36726;52.328;10.552;2022-12-24T10:46:51;9.10;;;3.92;;
21272;SDS011;36726;52.328;10.552;2022-12-24T10:49:19;13.13;;;4.38;;
21272;SDS011;36726;52.328;10.552;2022-12-24T10:52:04;10.40;;;3.92;;
21272;SDS011;36726;52.328;10.552;2022-12-24T10:54:34;13.98;;;4.15;;
21272;SDS011;36726;52.328;10.552;2022-12-24T10:57:05;12.27;;;4.55;;
21272;SDS011;36726;52.328;10.552;2022-12-24T10:59:53;12.52;;;4.43;;
21272;SDS011;36726;52.328;10.552;2022-12-24T11:02:31;9.40;;;4.28;;
21272;SDS011;36726;52.328;10.552;2022-12-24T11:05:06;13.73;;;3.80;;
21272;SDS011;36726;52.328;10.552;2022-12-24T11:08:00;7.97;;;3.40;;
21272;SDS011;36726;52.328;10.552;2022-12-24T11:10:28;10.23;;;3.25;;
21272;SDS011;36726;52.328;10.552;2022-12-24T11:12:56;11.65;;;3.92;;
21272;SDS011;36726;52.328;10.552;2022-12-24T11:15:43;8.60;;;3.25;;
21272;SDS011;36726;52.328;10.552;2022-12-24T11:18:13;5.63;;;3.10;;
21272;SDS011;36726;52.328;10.552;2022-12-24T11:20:40;11.75;;;3.70;;
21272;SDS011;36726;52.328;10.552;2022-12-24T11:23:14;10.35;;;3.78;;
21272;SDS011;36726;52.328;10.552;2022-12-24T11:25:45;17.02;;;4.32;;
21272;SDS011;36726;52.328;10.552;2022-12-24T11:28:22;10.80;;;4.13;;
21272;SDS011;36726;52.328;10.552;2022-12-24T11:33:51;9.20;;;3.90;;
21272;SDS011;36726;52.328;10.552;2022-12-24T11:36:19;9.05;;;4.15;;
21272;SDS011;36726;52.328;10.552;2022-12-24T11:38:52;13.55;;;4.28;;
21272;SDS011;36726;52.328;10.552;2022-12-24T11:41:21;8.25;;;3.85;;
21272;SDS011;36726;52.328;10.552;2022-12-24T11:43:51;9.35;;;3.92;;
21272;SDS011;36726;52.328;10.552;2022-12-24T11:46:41;7.13;;;3.90;;
21272;SDS011;36726;52.328;10.552;2022-12-24T11:49:26;13.18;;;4.85;;
21272;SDS011;36726;52.328;10.552;2022-12-24T11:54:58;11.13;;;3.95;;
21272;SDS011;36726;52.328;10.552;2022-12-24T12:00:37;8.63;;;4.75;;
21272;SDS011;36726;52.328;10.552;2022-12-24T12:03:09;8.82;;;3.70;;
21272;SDS011;36726;52.328;10.552;2022-12-24T12:05:57;9.40;;;3.90;;
21272;SDS011;36726;52.328;10.552;2022-12-24T12:08:27;10.88;;;3.60;;
21272;SDS011;36726;52.328;10.552;2022-12-24T12:10:55;8.98;;;3.30;;
21272;SDS011;36726;52.328;10.552;2022-12-24T12:13:27;7.30;;;3.17;;
21272;SDS011;36726;52.328;10.552;2022-12-24T12:19:23;10.55;;;3.25;;
21272;SDS011;36726;52.328;10.552;2022-12-24T12:21:52;8.02;;;3.08;;
21272;SDS011;36726;52.328;10.552;2022-12-24T12:24:23;12.65;;;3.28;;
21272;SDS011;36726;52.328;10.552;2022-12-24T12:27:17;7.15;;;3.53;;
21272;SDS011;36726;52.328;10.552;2022-12-24T12:30:00;9.82;;;3.78;;
21272;SDS011;36726;52.328;10.552;2022-12-24T12:35:15;9.18;;;3.60;;
21272;SDS011;36726;52.328;10.552;2022-12-24T12:37:43;10.75;;;4.20;;
21272;SDS011;36726;52.328;10.552;2022-12-24T12:40:14;5.82;;;3.75;;
21272;SDS011;36726;52.328;10.552;2022-12-24T12:42:49;9.60;;;3.72;;
21272;SDS011;36726;52.328;10.552;2022-12-24T12:45:44;11.60;;;3.97;;
21272;SDS011;36726;52.328;10.552;2022-12-24T12:48:22;7.20;;;3.45;;
21272;SDS011;36726;52.328;10.552;2022-12-24T12:51:03;8.35;;;3.80;;
21272;SDS011;36726;52.328;10.552;2022-12-24T12:56:34;10.88;;;3.88;;
21272;SDS011;36726;52.328;10.552;2022-12-24T12:59:03;8.27;;;3.45;;
21272;SDS011;36726;52.328;10.552;2022-12-24T13:01:46;9.27;;;3.53;;
21272;SDS011;36726;52.328;10.552;2022-12-24T13:04:33;10.32;;;3.60;;
21272;SDS011;36726;52.328;10.552;2022-12-24T13:19:10;7.72;;;2.60;;
21272;SDS011;36726;52.328;10.552;2022-12-24T13:22:03;6.07;;;2.40;;
21272;SDS011;36726;52.328;10.552;2022-12-24T13:24:39;8.10;;;2.70;;
21272;SDS011;36726;52.328;10.552;2022-12-24T13:27:18;5.20;;;2.30;;
21272;SDS011;36726;52.328;10.552;2022-12-24T13:29:58;4.05;;;2.13;;
21272;SDS011;36726;52.328;10.552;2022-12-24T13:32:36;3.72;;;1.88;;
21272;SDS011;36726;52.328;10.552;2022-12-24T13:37:46;6.13;;;2.15;;
21272;SDS011;36726;52.328;10.552;2022-12-24T13:48:39;2.65;;;1.23;;
21272;SDS011;36726;52.328;10.552;2022-12-24T13:50:42;2.22;;;1.13;;
21272;SDS011;36726;52.328;10.552;2022-12-24T13:53:21;2.92;;;1.40;;
21272;SDS011;36726;52.328;10.552;2022-12-24T13:55:52;4.13;;;1.73;;
21272;SDS011;36726;52.328;10.552;2022-12-24T13:58:23;5.20;;;1.33;;
21272;SDS011;36726;52.328;10.552;2022-12-24T14:04:01;5.75;;;1.95;;
21272;SDS011;36726;52.328;10.552;2022-12-24T14:09:09;9.02;;;1.80;;
21272;SDS011;36726;52.328;10.552;2022-12-24T14:14:26;4.75;;;1.67;;
21272;SDS011;36726;52.328;10.552;2022-12-24T14:16:56;4.57;;;2.40;;
21272;SDS011;36726;52.328;10.552;2022-12-24T14:19:27;8.18;;;2.30;;
21272;SDS011;36726;52.328;10.552;2022-12-24T14:22:04;5.88;;;2.22;;
21272;SDS011;36726;52.328;10.552;2022-12-24T14:24:46;7.32;;;2.47;;
21272;SDS011;36726;52.328;10.552;2022-12-24T14:27:27;10.65;;;2.70;;
21272;SDS011;36726;52.328;10.552;2022-12-24T14:32:34;3.83;;;1.80;;
21272;SDS011;36726;52.328;10.552;2022-12-24T14:37:47;5.25;;;2.42;;
21272;SDS011;36726;52.328;10.552;2022-12-24T14:40:29;2.70;;;1.20;;
21272;SDS011;36726;52.328;10.552;2022-12-24T14:46:03;4.28;;;1.08;;
21272;SDS011;36726;52.328;10.552;2022-12-24T14:51:30;2.72;;;1.00;;
21272;SDS011;36726;52.328;10.552;2022-12-24T14:57:09;7.82;;;3.58;;
21272;SDS011;36726;52.328;10.552;2022-12-24T14:59:47;8.27;;;4.43;;
21272;SDS011;36726;52.328;10.552;2022-12-24T15:02:29;7.28;;;4.20;;
21272;SDS011;36726;52.328;10.552;2022-12-24T15:05:26;7.18;;;4.43;;
21272;SDS011;36726;52.328;10.552;2022-12-24T15:07:58;6.82;;;2.00;;
21272;SDS011;36726;52.328;10.552;2022-12-24T15:10:30;2.22;;;1.10;;
21272;SDS011;36726;52.328;10.552;2022-12-24T15:13:08;2.17;;;0.90;;
21272;SDS011;36726;52.328;10.552;2022-12-24T15:15:46;3.38;;;1.40;;
21272;SDS011;36726;52.328;10.552;2022-12-24T15:18:20;3.13;;;1.35;;
21272;SDS011;36726;52.328;10.552;2022-12-24T15:20:50;3.40;;;1.30;;
21272;SDS011;36726;52.328;10.552;2022-12-24T15:23:28;2.92;;;1.20;;
21272;SDS011;36726;52.328;10.552;2022-12-24T15:28:36;4.43;;;1.50;;
21272;SDS011;36726;52.328;10.552;2022-12-24T15:31:10;4.90;;;2.20;;
21272;SDS011;36726;52.328;10.552;2022-12-24T15:33:48;4.93;;;2.60;;
21272;SDS011;36726;52.328;10.552;2022-12-24T15:36:23;6.97;;;2.75;;
21272;SDS011;36726;52.328;10.552;2022-12-24T15:38:53;5.45;;;2.53;;
21272;SDS011;36726;52.328;10.552;2022-12-24T15:41:24;8.60;;;3.25;;
21272;SDS011;36726;52.328;10.552;2022-12-24T15:43:53;8.07;;;4.07;;
21272;SDS011;36726;52.328;10.552;2022-12-24T15:46:26;10.77;;;3.65;;
21272;SDS011;36726;52.328;10.552;2022-12-24T15:48:55;9.98;;;3.08;;
21272;SDS011;36726;52.328;10.552;2022-12-24T15:51:33;8.82;;;3.35;;
21272;SDS011;36726;52.328;10.552;2022-12-24T15:54:09;6.00;;;2.92;;
21272;SDS011;36726;52.328;10.552;2022-12-24T15:56:40;8.55;;;3.35;;
21272;SDS011;36726;52.328;10.552;2022-12-24T16:01:54;10.77;;;3.85;;
21272;SDS011;36726;52.328;10.552;2022-12-24T16:04:25;8.27;;;2.60;;
21272;SDS011;36726;52.328;10.552;2022-12-24T16:06:59;9.02;;;4.10;;
21272;SDS011;36726;52.328;10.552;2022-12-24T16:12:00;8.07;;;3.33;;
21272;SDS011;36726;52.328;10.552;2022-12-24T16:14:29;11.18;;;3.88;;
21272;SDS011;36726;52.328;10.552;2022-12-24T16:16:58;5.68;;;3.05;;
21272;SDS011;36726;52.328;10.552;2022-12-24T16:19:29;13.00;;;3.83;;
21272;SDS011;36726;52.328;10.552;2022-12-24T16:22:05;6.70;;;3.60;;
21272;SDS011;36726;52.328;10.552;2022-12-24T16:24:50;6.65;;;4.13;;
21272;SDS011;36726;52.328;10.552;2022-12-24T16:27:21;6.18;;;3.53;;
21272;SDS011;36726;52.328;10.552;2022-12-24T16:29:47;8.57;;;4.97;;
21272;SDS011;36726;52.328;10.552;2022-12-24T16:32:28;15.23;;;6.90;;
21272;SDS011;36726;52.328;10.552;2022-12-24T16:34:58;10.73;;;6.70;;